sensor_id;sensor_type;location;lat;lon;timestamp;pressure;altitude;pressure_sealevel;temperature;humidity
56330;BME280;42236;48.058;10.632;2022-12-01T00:02:43;94994.06;;;1.09;94.45
56330;BME280;42236;48.058;10.632;2022-12-01T00:05:29;94984.25;;;0.94;95.14
56330;BME280;42236;48.058;10.632;2022-12-01T00:08:15;94991.16;;;0.95;95.27
56330;BME280;42236;48.058;10.632;2022-12-01T00:11:10;94989.63;;;0.79;95.85
56330;BME280;42236;48.058;10.632;2022-12-01T00:13:58;94979.78;;;0.79;95.87
56330;BME280;42236;48.058;10.632;2022-12-01T00:16:44;94966.50;;;0.84;96.02
56330;BME280;42236;48.058;10.632;2022-12-01T00:19:29;94970.19;;;0.89;96.10
56330;BME280;42236;48.058;10.632;2022-12-01T00:22:15;94973.38;;;0.91;95.47
56330;BME280;42236;48.058;10.632;2022-12-01T00:25:01;94975.50;;;0.94;95.87
56330;BME280;42236;48.058;10.632;2022-12-01T00:27:47;94978.44;;;0.92;95.84
56330;BME280;42236;48.058;10.632;2022-12-01T00:30:34;94978.66;;;1.01;95.88
56330;BME280;42236;48.058;10.632;2022-12-01T00:33:19;94976.28;;;1.04;95.54
56330;BME280;42236;48.058;10.632;2022-12-01T00:36:06;94986.09;;;1.09;95.24
56330;BME280;42236;48.058;10.632;2022-12-01T00:38:53;94973.81;;;1.13;95.25
56330;BME280;42236;48.058;10.632;2022-12-01T00:41:39;94967.50;;;1.04;95.65
56330;BME280;42236;48.058;10.632;2022-12-01T00:44:24;94979.72;;;1.05;95.66
56330;BME280;42236;48.058;10.632;2022-12-01T00:47:10;94985.56;;;1.07;95.82
56330;BME280;42236;48.058;10.632;2022-12-01T00:49:55;94987.13;;;1.08;95.69
56330;BME280;42236;48.058;10.632;2022-12-01T00:52:41;94991.41;;;1.09;95.63
56330;BME280;42236;48.058;10.632;2022-12-01T00:55:27;94985.00;;;1.10;95.52
56330;BME280;42236;48.058;10.632;2022-12-01T00:58:12;94985.28;;;1.14;95.45
56330;BME280;42236;48.058;10.632;2022-12-01T01:01:00;94997.22;;;1.16;95.26
56330;BME280;42236;48.058;10.632;2022-12-01T01:03:45;94991.59;;;1.23;95.39
56330;BME280;42236;48.058;10.632;2022-12-01T01:06:31;94991.84;;;1.26;95.14
56330;BME280;42236;48.058;10.632;2022-12-01T01:09:17;95000.88;;;1.31;95.16
56330;BME280;42236;48.058;10.632;2022-12-01T01:12:02;94991.28;;;1.35;95.01
56330;BME280;42236;48.058;10.632;2022-12-01T01:14:48;94997.94;;;1.32;95.02
56330;BME280;42236;48.058;10.632;2022-12-01T01:17:34;94995.03;;;1.28;94.96
56330;BME280;42236;48.058;10.632;2022-12-01T01:20:19;95001.38;;;1.33;95.32
56330;BME280;42236;48.058;10.632;2022-12-01T01:23:05;94996.06;;;1.33;94.82
56330;BME280;42236;48.058;10.632;2022-12-01T01:25:51;95000.09;;;1.25;94.73
56330;BME280;42236;48.058;10.632;2022-12-01T01:28:37;94995.31;;;1.22;95.17
56330;BME280;42236;48.058;10.632;2022-12-01T01:31:28;94990.28;;;1.20;94.89
56330;BME280;42236;48.058;10.632;2022-12-01T01:34:14;94987.09;;;1.13;94.75
56330;BME280;42236;48.058;10.632;2022-12-01T01:36:59;94995.38;;;1.06;95.13
56330;BME280;42236;48.058;10.632;2022-12-01T01:39:45;94991.69;;;1.02;95.41
56330;BME280;42236;48.058;10.632;2022-12-01T01:42:31;94987.69;;;1.00;95.47
56330;BME280;42236;48.058;10.632;2022-12-01T01:45:24;94981.59;;;0.94;95.68
56330;BME280;42236;48.058;10.632;2022-12-01T01:48:11;94980.78;;;0.99;95.80
56330;BME280;42236;48.058;10.632;2022-12-01T01:50:58;94985.28;;;1.03;95.84
56330;BME280;42236;48.058;10.632;2022-12-01T01:53:44;94984.25;;;0.99;95.84
56330;BME280;42236;48.058;10.632;2022-12-01T01:56:31;94989.31;;;0.91;95.95
56330;BME280;42236;48.058;10.632;2022-12-01T01:59:21;94988.53;;;0.90;96.32
56330;BME280;42236;48.058;10.632;2022-12-01T02:02:10;94990.66;;;0.88;96.29
56330;BME280;42236;48.058;10.632;2022-12-01T02:04:59;94987.75;;;0.90;96.32
56330;BME280;42236;48.058;10.632;2022-12-01T02:07:46;94986.13;;;0.94;96.53
56330;BME280;42236;48.058;10.632;2022-12-01T02:16:24;94969.91;;;0.95;96.29
56330;BME280;42236;48.058;10.632;2022-12-01T02:20:02;94973.16;;;0.87;96.53
56330;BME280;42236;48.058;10.632;2022-12-01T02:32:54;94973.94;;;0.88;97.20
56330;BME280;42236;48.058;10.632;2022-12-01T02:35:48;94974.72;;;0.88;97.24
56330;BME280;42236;48.058;10.632;2022-12-01T02:38:41;94973.66;;;0.84;97.36
56330;BME280;42236;48.058;10.632;2022-12-01T02:41:36;94977.63;;;0.87;97.53
56330;BME280;42236;48.058;10.632;2022-12-01T02:44:29;94979.00;;;0.79;97.49
56330;BME280;42236;48.058;10.632;2022-12-01T02:47:18;94970.25;;;0.78;97.76
56330;BME280;42236;48.058;10.632;2022-12-01T02:50:05;94973.94;;;0.77;97.72
56330;BME280;42236;48.058;10.632;2022-12-01T02:52:52;94977.66;;;0.81;97.61
56330;BME280;42236;48.058;10.632;2022-12-01T02:55:51;94972.91;;;0.78;97.56
56330;BME280;42236;48.058;10.632;2022-12-01T02:58:37;94973.94;;;0.77;97.90
56330;BME280;42236;48.058;10.632;2022-12-01T03:01:42;94968.13;;;0.75;98.12
56330;BME280;42236;48.058;10.632;2022-12-01T03:04:38;94975.56;;;0.78;98.25
56330;BME280;42236;48.058;10.632;2022-12-01T03:07:50;94966.78;;;0.78;98.22
56330;BME280;42236;48.058;10.632;2022-12-01T03:10:50;94969.13;;;0.84;98.09
56330;BME280;42236;48.058;10.632;2022-12-01T03:13:49;94972.84;;;0.89;97.39
56330;BME280;42236;48.058;10.632;2022-12-01T03:16:52;94965.44;;;0.85;97.34
56330;BME280;42236;48.058;10.632;2022-12-01T03:19:43;94966.00;;;0.82;97.73
56330;BME280;42236;48.058;10.632;2022-12-01T03:22:40;94971.00;;;0.89;97.34
56330;BME280;42236;48.058;10.632;2022-12-01T03:25:27;94964.34;;;0.92;97.15
56330;BME280;42236;48.058;10.632;2022-12-01T03:28:17;94971.81;;;0.90;97.06
56330;BME280;42236;48.058;10.632;2022-12-01T03:31:09;94969.66;;;0.97;97.07
56330;BME280;42236;48.058;10.632;2022-12-01T03:33:59;94966.44;;;1.00;97.23
56330;BME280;42236;48.058;10.632;2022-12-01T03:36:50;94971.25;;;0.93;96.99
56330;BME280;42236;48.058;10.632;2022-12-01T03:39:38;94967.53;;;0.94;97.36
56330;BME280;42236;48.058;10.632;2022-12-01T03:45:23;94964.88;;;0.89;97.10
56330;BME280;42236;48.058;10.632;2022-12-01T03:48:11;94962.25;;;0.83;97.45
56330;BME280;42236;48.058;10.632;2022-12-01T03:51:17;94971.84;;;0.69;97.94
56330;BME280;42236;48.058;10.632;2022-12-01T03:57:14;94973.97;;;0.67;98.27
56330;BME280;42236;48.058;10.632;2022-12-01T04:00:03;94977.69;;;0.76;98.04
56330;BME280;42236;48.058;10.632;2022-12-01T04:02:56;94979.25;;;0.88;97.87
56330;BME280;42236;48.058;10.632;2022-12-01T04:05:42;94973.16;;;0.87;97.58
56330;BME280;42236;48.058;10.632;2022-12-01T04:08:28;94977.13;;;0.90;97.73
56330;BME280;42236;48.058;10.632;2022-12-01T04:11:15;94971.53;;;0.86;97.69
56330;BME280;42236;48.058;10.632;2022-12-01T04:14:23;94981.38;;;0.85;97.85
56330;BME280;42236;48.058;10.632;2022-12-01T04:17:09;94977.13;;;0.90;97.85
56330;BME280;42236;48.058;10.632;2022-12-01T04:19:55;94979.25;;;0.88;98.24
56330;BME280;42236;48.058;10.632;2022-12-01T04:22:41;94980.81;;;0.89;98.07
56330;BME280;42236;48.058;10.632;2022-12-01T04:25:26;94981.09;;;0.82;98.36
56330;BME280;42236;48.058;10.632;2022-12-01T04:28:12;94986.72;;;0.75;98.63
56330;BME280;42236;48.058;10.632;2022-12-01T04:30:57;94981.91;;;0.77;98.49
56330;BME280;42236;48.058;10.632;2022-12-01T04:33:43;94977.63;;;0.87;98.11
56330;BME280;42236;48.058;10.632;2022-12-01T04:36:30;94978.72;;;0.85;98.03
56330;BME280;42236;48.058;10.632;2022-12-01T04:39:16;94977.66;;;0.81;98.21
56330;BME280;42236;48.058;10.632;2022-12-01T04:42:02;94980.59;;;0.80;98.66
56330;BME280;42236;48.058;10.632;2022-12-01T04:44:48;94981.38;;;0.80;98.49
56330;BME280;42236;48.058;10.632;2022-12-01T04:47:33;94983.25;;;0.85;98.54
56330;BME280;42236;48.058;10.632;2022-12-01T04:50:19;94982.94;;;0.87;98.23
56330;BME280;42236;48.058;10.632;2022-12-01T04:53:05;94984.03;;;0.80;98.56
56330;BME280;42236;48.058;10.632;2022-12-01T04:55:50;94978.75;;;0.80;98.71
56330;BME280;42236;48.058;10.632;2022-12-01T04:58:36;94984.84;;;0.81;98.48
56330;BME280;42236;48.058;10.632;2022-12-01T05:01:22;94979.25;;;0.88;98.67
56330;BME280;42236;48.058;10.632;2022-12-01T05:04:10;94988.03;;;0.83;98.53
56330;BME280;42236;48.058;10.632;2022-12-01T05:06:56;94981.91;;;0.82;98.62
56330;BME280;42236;48.058;10.632;2022-12-01T05:09:42;94981.09;;;0.82;98.75
56330;BME280;42236;48.058;10.632;2022-12-01T05:12:28;94983.75;;;0.82;98.99
56330;BME280;42236;48.058;10.632;2022-12-01T05:15:13;94992.53;;;0.88;98.75
56330;BME280;42236;48.058;10.632;2022-12-01T05:17:59;94991.44;;;0.89;98.87
56330;BME280;42236;48.058;10.632;2022-12-01T05:20:45;94986.41;;;0.92;98.74
56330;BME280;42236;48.058;10.632;2022-12-01T05:23:43;94990.91;;;0.92;98.85
56330;BME280;42236;48.058;10.632;2022-12-01T05:26:31;94987.19;;;0.93;98.90
56330;BME280;42236;48.058;10.632;2022-12-01T05:29:17;94991.41;;;0.99;98.70
56330;BME280;42236;48.058;10.632;2022-12-01T05:32:02;94989.84;;;0.98;98.97
56330;BME280;42236;48.058;10.632;2022-12-01T05:34:49;94994.88;;;0.99;99.21
56330;BME280;42236;48.058;10.632;2022-12-01T05:37:34;94985.59;;;0.92;99.14
56330;BME280;42236;48.058;10.632;2022-12-01T05:40:20;94989.84;;;0.98;99.17
56330;BME280;42236;48.058;10.632;2022-12-01T05:43:06;94988.22;;;1.02;98.90
56330;BME280;42236;48.058;10.632;2022-12-01T05:45:53;94987.97;;;0.98;99.01
56330;BME280;42236;48.058;10.632;2022-12-01T05:48:39;94998.34;;;1.00;98.74
56330;BME280;42236;48.058;10.632;2022-12-01T05:51:25;94990.88;;;1.02;99.06
56330;BME280;42236;48.058;10.632;2022-12-01T05:54:10;94991.91;;;1.06;98.93
56330;BME280;42236;48.058;10.632;2022-12-01T05:56:56;94986.59;;;1.06;98.76
56330;BME280;42236;48.058;10.632;2022-12-01T05:59:42;94996.16;;;1.12;99.05
56330;BME280;42236;48.058;10.632;2022-12-01T06:02:27;94995.66;;;1.05;99.20
56330;BME280;42236;48.058;10.632;2022-12-01T06:05:13;94998.56;;;1.03;99.30
56330;BME280;42236;48.058;10.632;2022-12-01T06:07:59;94997.22;;;1.06;99.22
56330;BME280;42236;48.058;10.632;2022-12-01T06:10:46;95005.19;;;1.06;99.50
56330;BME280;42236;48.058;10.632;2022-12-01T06:13:31;95003.63;;;1.00;100.00
56330;BME280;42236;48.058;10.632;2022-12-01T06:16:17;95006.00;;;1.01;100.00
56330;BME280;42236;48.058;10.632;2022-12-01T06:19:02;95002.56;;;1.01;100.00
56330;BME280;42236;48.058;10.632;2022-12-01T06:21:48;95007.34;;;1.04;100.00
56330;BME280;42236;48.058;10.632;2022-12-01T06:24:34;95000.47;;;0.98;100.00
56330;BME280;42236;48.058;10.632;2022-12-01T06:27:19;95006.84;;;0.92;100.00
56330;BME280;42236;48.058;10.632;2022-12-01T06:30:05;95006.59;;;0.88;100.00
56330;BME280;42236;48.058;10.632;2022-12-01T06:32:51;95003.16;;;0.88;100.00
56330;BME280;42236;48.058;10.632;2022-12-01T06:35:37;95006.03;;;0.91;100.00
56330;BME280;42236;48.058;10.632;2022-12-01T06:38:23;95007.88;;;1.01;100.00
56330;BME280;42236;48.058;10.632;2022-12-01T06:41:08;95012.13;;;1.07;100.00
56330;BME280;42236;48.058;10.632;2022-12-01T06:43:54;95013.97;;;1.12;100.00
56330;BME280;42236;48.058;10.632;2022-12-01T06:46:40;95010.22;;;1.13;100.00
56330;BME280;42236;48.058;10.632;2022-12-01T06:49:26;95008.38;;;1.13;100.00
56330;BME280;42236;48.058;10.632;2022-12-01T06:52:11;95014.75;;;1.17;100.00
56330;BME280;42236;48.058;10.632;2022-12-01T06:54:57;95012.06;;;1.22;100.00
56330;BME280;42236;48.058;10.632;2022-12-01T06:57:44;95024.59;;;1.12;100.00
56330;BME280;42236;48.058;10.632;2022-12-01T07:00:30;95019.00;;;1.13;100.00
56330;BME280;42236;48.058;10.632;2022-12-01T07:03:15;95017.94;;;1.14;100.00
56330;BME280;42236;48.058;10.632;2022-12-01T07:06:01;95028.56;;;1.19;100.00
56330;BME280;42236;48.058;10.632;2022-12-01T07:08:47;95018.97;;;1.23;100.00
56330;BME280;42236;48.058;10.632;2022-12-01T07:11:32;95030.38;;;1.29;99.81
56330;BME280;42236;48.058;10.632;2022-12-01T07:14:25;95031.94;;;1.35;99.79
56330;BME280;42236;48.058;10.632;2022-12-01T07:17:15;95034.59;;;1.40;99.51
56330;BME280;42236;48.058;10.632;2022-12-01T07:20:00;95034.03;;;1.43;99.67
56330;BME280;42236;48.058;10.632;2022-12-01T07:22:46;95037.22;;;1.45;99.29
56330;BME280;42236;48.058;10.632;2022-12-01T07:25:32;95041.22;;;1.43;99.28
56330;BME280;42236;48.058;10.632;2022-12-01T07:28:17;95042.53;;;1.45;99.41
56330;BME280;42236;48.058;10.632;2022-12-01T07:31:17;95042.53;;;1.51;99.18
56330;BME280;42236;48.058;10.632;2022-12-01T07:34:03;95040.66;;;1.51;99.04
56330;BME280;42236;48.058;10.632;2022-12-01T07:36:49;95045.69;;;1.53;98.68
56330;BME280;42236;48.058;10.632;2022-12-01T07:39:35;95038.50;;;1.53;98.73
56330;BME280;42236;48.058;10.632;2022-12-01T07:42:21;95039.84;;;1.51;98.63
56330;BME280;42236;48.058;10.632;2022-12-01T07:45:06;95043.53;;;1.55;98.83
56330;BME280;42236;48.058;10.632;2022-12-01T07:47:52;95038.22;;;1.55;98.41
56330;BME280;42236;48.058;10.632;2022-12-01T07:50:38;95044.34;;;1.60;98.40
56330;BME280;42236;48.058;10.632;2022-12-01T07:53:24;95047.19;;;1.69;98.49
56330;BME280;42236;48.058;10.632;2022-12-01T07:56:10;95050.13;;;1.73;98.67
56330;BME280;42236;48.058;10.632;2022-12-01T07:58:56;95043.72;;;1.74;98.24
56330;BME280;42236;48.058;10.632;2022-12-01T08:01:41;95043.47;;;1.75;98.08
56330;BME280;42236;48.058;10.632;2022-12-01T08:04:28;95042.63;;;1.80;98.21
56330;BME280;42236;48.058;10.632;2022-12-01T08:07:13;95043.69;;;1.84;98.07
56330;BME280;42236;48.058;10.632;2022-12-01T08:09:59;95044.72;;;1.88;97.83
56330;BME280;42236;48.058;10.632;2022-12-01T08:12:45;95042.56;;;1.90;97.47
56330;BME280;42236;48.058;10.632;2022-12-01T08:15:31;95044.97;;;1.91;97.36
56330;BME280;42236;48.058;10.632;2022-12-01T08:18:16;95046.31;;;1.89;97.19
56330;BME280;42236;48.058;10.632;2022-12-01T08:21:03;95049.50;;;1.91;97.28
56330;BME280;42236;48.058;10.632;2022-12-01T08:23:54;95045.19;;;1.95;97.30
56330;BME280;42236;48.058;10.632;2022-12-01T08:26:40;95050.47;;;2.00;97.13
56330;BME280;42236;48.058;10.632;2022-12-01T08:29:25;95048.91;;;1.99;96.62
56330;BME280;42236;48.058;10.632;2022-12-01T08:32:11;95053.69;;;1.97;97.24
56330;BME280;42236;48.058;10.632;2022-12-01T08:34:57;95048.13;;;1.99;97.17
56330;BME280;42236;48.058;10.632;2022-12-01T08:37:42;95048.09;;;2.04;97.03
56330;BME280;42236;48.058;10.632;2022-12-01T08:40:28;95046.69;;;2.11;96.89
56330;BME280;42236;48.058;10.632;2022-12-01T08:43:13;95052.53;;;2.13;96.21
56330;BME280;42236;48.058;10.632;2022-12-01T08:46:00;95044.56;;;2.13;96.09
56330;BME280;42236;48.058;10.632;2022-12-01T08:48:45;95048.25;;;2.18;96.21
56330;BME280;42236;48.058;10.632;2022-12-01T08:51:31;95053.28;;;2.19;95.93
56330;BME280;42236;48.058;10.632;2022-12-01T08:54:17;95053.59;;;2.18;95.68
56330;BME280;42236;48.058;10.632;2022-12-01T08:57:03;95047.78;;;2.10;95.93
56330;BME280;42236;48.058;10.632;2022-12-01T08:59:48;95053.88;;;2.11;96.09
56330;BME280;42236;48.058;10.632;2022-12-01T09:02:34;95053.06;;;2.16;96.23
56330;BME280;42236;48.058;10.632;2022-12-01T09:05:20;95054.16;;;2.09;95.72
56330;BME280;42236;48.058;10.632;2022-12-01T09:08:05;95056.59;;;2.06;95.91
56330;BME280;42236;48.058;10.632;2022-12-01T09:11:12;95063.25;;;2.03;96.23
56330;BME280;42236;48.058;10.632;2022-12-01T09:13:58;95058.97;;;2.07;96.23
56330;BME280;42236;48.058;10.632;2022-12-01T09:16:46;95063.25;;;2.03;95.87
56330;BME280;42236;48.058;10.632;2022-12-01T09:19:32;95062.22;;;1.99;95.98
56330;BME280;42236;48.058;10.632;2022-12-01T09:22:18;95061.13;;;2.00;96.02
56330;BME280;42236;48.058;10.632;2022-12-01T09:25:04;95063.25;;;2.03;96.15
56330;BME280;42236;48.058;10.632;2022-12-01T09:27:52;95061.09;;;2.05;95.97
56330;BME280;42236;48.058;10.632;2022-12-01T09:30:38;95063.50;;;2.07;95.50
56330;BME280;42236;48.058;10.632;2022-12-01T09:33:23;95059.81;;;1.98;95.00
56330;BME280;42236;48.058;10.632;2022-12-01T09:36:09;95056.34;;;2.02;95.53
56330;BME280;42236;48.058;10.632;2022-12-01T09:38:55;95057.69;;;2.00;95.04
56330;BME280;42236;48.058;10.632;2022-12-01T09:42:02;95053.09;;;2.05;95.15
56330;BME280;42236;48.058;10.632;2022-12-01T09:44:53;95061.06;;;2.16;94.91
56330;BME280;42236;48.058;10.632;2022-12-01T09:47:40;95049.84;;;2.19;94.90
56330;BME280;42236;48.058;10.632;2022-12-01T09:50:27;95052.94;;;2.31;95.00
56330;BME280;42236;48.058;10.632;2022-12-01T09:53:18;95042.22;;;2.41;94.07
56330;BME280;42236;48.058;10.632;2022-12-01T09:56:05;95045.88;;;2.50;94.46
56330;BME280;42236;48.058;10.632;2022-12-01T09:58:53;95039.97;;;2.59;93.98
56330;BME280;42236;48.058;10.632;2022-12-01T10:01:42;95034.06;;;2.62;92.48
56330;BME280;42236;48.058;10.632;2022-12-01T10:04:38;95032.25;;;2.57;91.61
56330;BME280;42236;48.058;10.632;2022-12-01T10:07:35;95028.97;;;2.65;93.02
56330;BME280;42236;48.058;10.632;2022-12-01T10:10:29;95028.13;;;2.70;91.57
56330;BME280;42236;48.058;10.632;2022-12-01T10:13:17;95031.78;;;2.79;92.23
56330;BME280;42236;48.058;10.632;2022-12-01T10:16:11;95030.16;;;2.83;91.90
56330;BME280;42236;48.058;10.632;2022-12-01T10:19:04;95030.09;;;2.88;91.50
56330;BME280;42236;48.058;10.632;2022-12-01T10:22:11;95026.91;;;2.86;89.79
56330;BME280;42236;48.058;10.632;2022-12-01T10:25:19;95030.66;;;2.85;90.34
56330;BME280;42236;48.058;10.632;2022-12-01T10:31:38;95019.53;;;2.78;90.27
56330;BME280;42236;48.058;10.632;2022-12-01T10:34:36;95018.97;;;2.81;91.90
56330;BME280;42236;48.058;10.632;2022-12-01T10:37:27;95017.38;;;2.80;91.58
56330;BME280;42236;48.058;10.632;2022-12-01T10:40:15;95013.91;;;2.80;91.50
56330;BME280;42236;48.058;10.632;2022-12-01T10:43:01;95006.16;;;2.83;91.73
56330;BME280;42236;48.058;10.632;2022-12-01T10:45:47;95004.03;;;2.85;91.55
56330;BME280;42236;48.058;10.632;2022-12-01T10:48:51;95004.50;;;2.87;90.94
56330;BME280;42236;48.058;10.632;2022-12-01T10:54:38;94999.16;;;2.92;90.50
56330;BME280;42236;48.058;10.632;2022-12-01T10:57:25;94998.13;;;2.88;91.14
56330;BME280;42236;48.058;10.632;2022-12-01T11:00:41;94999.69;;;2.89;90.82
56330;BME280;42236;48.058;10.632;2022-12-01T11:03:30;94985.31;;;2.90;91.26
56330;BME280;42236;48.058;10.632;2022-12-01T11:06:21;94991.94;;;2.93;91.01
56330;BME280;42236;48.058;10.632;2022-12-01T11:09:17;94993.25;;;2.95;91.05
56330;BME280;42236;48.058;10.632;2022-12-01T11:12:04;94989.44;;;3.02;91.26
56330;BME280;42236;48.058;10.632;2022-12-01T11:14:52;94986.69;;;3.12;91.14
56330;BME280;42236;48.058;10.632;2022-12-01T11:17:41;94985.31;;;3.14;91.31
56330;BME280;42236;48.058;10.632;2022-12-01T11:26:08;94980.53;;;3.11;90.95
56330;BME280;42236;48.058;10.632;2022-12-01T11:29:35;94971.13;;;3.19;90.22
56330;BME280;42236;48.058;10.632;2022-12-01T11:32:27;94978.03;;;3.20;90.26
56330;BME280;42236;48.058;10.632;2022-12-01T11:35:19;94980.66;;;3.25;90.32
56330;BME280;42236;48.058;10.632;2022-12-01T11:38:06;94974.88;;;3.18;90.30
56330;BME280;42236;48.058;10.632;2022-12-01T11:40:54;94978.91;;;3.15;90.32
56330;BME280;42236;48.058;10.632;2022-12-01T11:43:40;94972.84;;;3.10;90.40
56330;BME280;42236;48.058;10.632;2022-12-01T11:46:31;94979.28;;;3.04;90.18
56330;BME280;42236;48.058;10.632;2022-12-01T11:49:23;94978.00;;;3.01;89.90
56330;BME280;42236;48.058;10.632;2022-12-01T11:52:30;94972.38;;;3.03;89.69
56330;BME280;42236;48.058;10.632;2022-12-01T11:58:02;94971.94;;;2.95;90.26
56330;BME280;42236;48.058;10.632;2022-12-01T12:00:54;94973.06;;;2.89;90.11
56330;BME280;42236;48.058;10.632;2022-12-01T12:16:24;94959.13;;;2.97;90.22
56330;BME280;42236;48.058;10.632;2022-12-01T12:22:32;94952.75;;;2.93;90.36
56330;BME280;42236;48.058;10.632;2022-12-01T12:25:30;94966.94;;;2.89;90.82
56330;BME280;42236;48.058;10.632;2022-12-01T12:28:35;94959.72;;;2.89;90.79
56330;BME280;42236;48.058;10.632;2022-12-01T12:31:59;94960.41;;;2.76;90.14
56330;BME280;42236;48.058;10.632;2022-12-01T12:38:44;94960.63;;;2.80;90.50
56330;BME280;42236;48.058;10.632;2022-12-01T12:41:44;94962.00;;;2.77;90.47
56330;BME280;42236;48.058;10.632;2022-12-01T12:44:43;94961.41;;;2.80;90.65
56330;BME280;42236;48.058;10.632;2022-12-01T12:47:45;94967.25;;;2.82;90.34
56330;BME280;42236;48.058;10.632;2022-12-01T12:50:55;94965.13;;;2.84;90.00
56330;BME280;42236;48.058;10.632;2022-12-01T12:53:49;94964.84;;;2.86;90.22
56330;BME280;42236;48.058;10.632;2022-12-01T12:56:38;94958.22;;;2.83;90.40
56330;BME280;42236;48.058;10.632;2022-12-01T12:59:45;94961.41;;;2.80;89.93
56330;BME280;42236;48.058;10.632;2022-12-01T13:03:03;94958.53;;;2.76;89.43
56330;BME280;42236;48.058;10.632;2022-12-01T13:06:14;94961.84;;;2.68;89.27
56330;BME280;42236;48.058;10.632;2022-12-01T13:09:08;94955.69;;;2.68;90.26
56330;BME280;42236;48.058;10.632;2022-12-01T13:11:59;94955.69;;;2.68;90.55
56330;BME280;42236;48.058;10.632;2022-12-01T13:14:51;94963.97;;;2.66;90.30
56330;BME280;42236;48.058;10.632;2022-12-01T13:17:41;94953.31;;;2.66;90.33
56330;BME280;42236;48.058;10.632;2022-12-01T13:20:29;94960.22;;;2.67;90.67
56330;BME280;42236;48.058;10.632;2022-12-01T13:23:18;94963.16;;;2.66;90.36
56330;BME280;42236;48.058;10.632;2022-12-01T13:26:07;94960.81;;;2.64;90.52
56330;BME280;42236;48.058;10.632;2022-12-01T13:28:55;94954.63;;;2.69;90.84
56330;BME280;42236;48.058;10.632;2022-12-01T13:31:47;94956.16;;;2.75;90.56
56330;BME280;42236;48.058;10.632;2022-12-01T13:34:40;94961.72;;;2.78;90.17
56330;BME280;42236;48.058;10.632;2022-12-01T13:37:28;94959.91;;;2.74;89.97
56330;BME280;42236;48.058;10.632;2022-12-01T13:40:21;94957.50;;;2.72;90.56
56330;BME280;42236;48.058;10.632;2022-12-01T13:43:18;94956.16;;;2.75;90.43
56330;BME280;42236;48.058;10.632;2022-12-01T13:46:19;94958.88;;;2.70;89.95
56330;BME280;42236;48.058;10.632;2022-12-01T13:49:45;94955.41;;;2.69;89.67
56330;BME280;42236;48.058;10.632;2022-12-01T13:52:31;94951.41;;;2.72;90.37
56330;BME280;42236;48.058;10.632;2022-12-01T14:00:48;94953.50;;;2.75;90.65
56330;BME280;42236;48.058;10.632;2022-12-01T14:03:39;94952.97;;;2.73;90.39
56330;BME280;42236;48.058;10.632;2022-12-01T14:09:38;94954.13;;;2.67;90.99
56330;BME280;42236;48.058;10.632;2022-12-01T14:12:27;94945.63;;;2.65;90.35
56330;BME280;42236;48.058;10.632;2022-12-01T14:15:26;94948.34;;;2.60;90.34
56330;BME280;42236;48.058;10.632;2022-12-01T14:21:07;94957.63;;;2.62;90.16
56330;BME280;42236;48.058;10.632;2022-12-01T14:24:02;94962.09;;;2.67;90.29
56330;BME280;42236;48.058;10.632;2022-12-01T14:26:50;94960.22;;;2.67;90.25
56330;BME280;42236;48.058;10.632;2022-12-01T14:29:38;94956.59;;;2.58;90.22
56330;BME280;42236;48.058;10.632;2022-12-01T14:32:27;94952.09;;;2.59;90.32
56330;BME280;42236;48.058;10.632;2022-12-01T14:35:12;94962.16;;;2.62;91.00
56330;BME280;42236;48.058;10.632;2022-12-01T14:37:59;94958.19;;;2.59;90.39
56330;BME280;42236;48.058;10.632;2022-12-01T14:40:50;94957.41;;;2.59;90.55
56330;BME280;42236;48.058;10.632;2022-12-01T14:43:37;94956.38;;;2.54;90.67
56330;BME280;42236;48.058;10.632;2022-12-01T14:46:48;94954.22;;;2.56;90.68
56330;BME280;42236;48.058;10.632;2022-12-01T14:49:52;94953.97;;;2.53;90.79
56330;BME280;42236;48.058;10.632;2022-12-01T14:52:51;94947.28;;;2.55;91.18
56330;BME280;42236;48.058;10.632;2022-12-01T14:55:40;94957.41;;;2.59;90.84
56330;BME280;42236;48.058;10.632;2022-12-01T14:58:29;94949.91;;;2.61;90.97
56330;BME280;42236;48.058;10.632;2022-12-01T15:01:15;94951.50;;;2.62;90.80
56330;BME280;42236;48.058;10.632;2022-12-01T15:04:04;94957.34;;;2.64;90.84
56330;BME280;42236;48.058;10.632;2022-12-01T15:06:56;94958.97;;;2.60;90.04
56330;BME280;42236;48.058;10.632;2022-12-01T15:09:57;94952.09;;;2.59;90.01
56330;BME280;42236;48.058;10.632;2022-12-01T15:12:44;94964.31;;;2.60;90.38
56330;BME280;42236;48.058;10.632;2022-12-01T15:15:30;94958.53;;;2.52;90.21
56330;BME280;42236;48.058;10.632;2022-12-01T15:18:21;94965.66;;;2.57;90.97
56330;BME280;42236;48.058;10.632;2022-12-01T15:21:26;94963.84;;;2.52;90.24
56330;BME280;42236;48.058;10.632;2022-12-01T15:27:22;94964.13;;;2.51;90.77
56330;BME280;42236;48.058;10.632;2022-12-01T15:30:15;94959.59;;;2.51;91.13
56330;BME280;42236;48.058;10.632;2022-12-01T15:33:04;94959.03;;;2.54;91.10
56330;BME280;42236;48.058;10.632;2022-12-01T15:35:51;94968.13;;;2.48;91.14
56330;BME280;42236;48.058;10.632;2022-12-01T15:38:39;94959.69;;;2.41;91.46
56330;BME280;42236;48.058;10.632;2022-12-01T15:41:27;94962.34;;;2.41;91.56
56330;BME280;42236;48.058;10.632;2022-12-01T15:44:21;94975.69;;;2.36;91.56
56330;BME280;42236;48.058;10.632;2022-12-01T15:47:30;94961.34;;;2.32;91.40
56330;BME280;42236;48.058;10.632;2022-12-01T15:53:27;94952.94;;;2.25;92.56
56330;BME280;42236;48.058;10.632;2022-12-01T15:56:14;94963.28;;;2.26;92.61
56330;BME280;42236;48.058;10.632;2022-12-01T15:59:22;94963.00;;;2.28;92.49
56330;BME280;42236;48.058;10.632;2022-12-01T16:05:03;94961.44;;;2.22;92.38
56330;BME280;42236;48.058;10.632;2022-12-01T16:07:50;94960.94;;;2.20;92.57
56330;BME280;42236;48.058;10.632;2022-12-01T16:10:36;94961.97;;;2.24;92.79
56330;BME280;42236;48.058;10.632;2022-12-01T16:13:45;94962.44;;;2.31;92.55
56330;BME280;42236;48.058;10.632;2022-12-01T16:16:45;94962.44;;;2.31;92.49
56330;BME280;42236;48.058;10.632;2022-12-01T16:19:32;94963.47;;;2.35;92.64